sensor_id;sensor_type;location;lat;lon;timestamp;pressure;altitude;pressure_sealevel;temperature;humidity
79799;BME280;69283;48.024;11.090;2023-08-12T00:01:15;95818.47;;;18.41;70.68
79799;BME280;69283;48.024;11.090;2023-08-12T00:03:41;95814.88;;;18.37;71.08
79799;BME280;69283;48.024;11.090;2023-08-12T00:06:07;95824.72;;;18.42;70.76
79799;BME280;69283;48.024;11.090;2023-08-12T00:08:32;95814.50;;;18.39;71.36
79799;BME280;69283;48.024;11.090;2023-08-12T00:10:57;95816.84;;;18.37;71.50
79799;BME280;69283;48.024;11.090;2023-08-12T00:13:23;95828.50;;;18.27;71.57
79799;BME280;69283;48.024;11.090;2023-08-12T00:15:48;95806.56;;;18.27;71.58
79799;BME280;69283;48.024;11.090;2023-08-12T00:18:14;95808.91;;;18.28;71.33
79799;BME280;69283;48.024;11.090;2023-08-12T00:20:40;95812.06;;;18.30;71.17
79799;BME280;69283;48.024;11.090;2023-08-12T00:23:07;95803.41;;;18.24;71.21
79799;BME280;69283;48.024;11.090;2023-08-12T00:25:33;95807.16;;;18.13;71.56
79799;BME280;69283;48.024;11.090;2023-08-12T00:27:58;95806.53;;;18.23;71.22
79799;BME280;69283;48.024;11.090;2023-08-12T00:30:23;95800.66;;;18.24;71.01
79799;BME280;69283;48.024;11.090;2023-08-12T00:32:48;95797.94;;;18.28;71.04
79799;BME280;69283;48.024;11.090;2023-08-12T00:35:14;95801.06;;;18.27;70.71
79799;BME280;69283;48.024;11.090;2023-08-12T00:37:39;95797.81;;;18.17;71.71
79799;BME280;69283;48.024;11.090;2023-08-12T00:40:05;95800.19;;;18.19;71.45
79799;BME280;69283;48.024;11.090;2023-08-12T00:42:31;95793.59;;;18.23;71.57
79799;BME280;69283;48.024;11.090;2023-08-12T00:44:57;95787.59;;;18.14;71.40
79799;BME280;69283;48.024;11.090;2023-08-12T00:47:23;95792.25;;;18.10;71.25
79799;BME280;69283;48.024;11.090;2023-08-12T00:49:48;95796.81;;;17.99;71.74
79799;BME280;69283;48.024;11.090;2023-08-12T00:52:15;95791.47;;;18.10;70.99
79799;BME280;69283;48.024;11.090;2023-08-12T00:54:42;95794.16;;;18.06;71.29
79799;BME280;69283;48.024;11.090;2023-08-12T00:57:07;95791.00;;;18.04;71.07
79799;BME280;69283;48.024;11.090;2023-08-12T00:59:35;95786.63;;;18.00;71.10
79799;BME280;69283;48.024;11.090;2023-08-12T01:02:02;95792.44;;;17.94;71.30
79799;BME280;69283;48.024;11.090;2023-08-12T01:04:29;95793.59;;;17.93;71.33
79799;BME280;69283;48.024;11.090;2023-08-12T01:06:54;95793.47;;;17.83;71.64
79799;BME280;69283;48.024;11.090;2023-08-12T01:09:19;95784.81;;;17.81;71.64
79799;BME280;69283;48.024;11.090;2023-08-12T01:17:08;95783.00;;;17.92;71.08
79799;BME280;69283;48.024;11.090;2023-08-12T01:19:38;95782.19;;;17.88;71.03
79799;BME280;69283;48.024;11.090;2023-08-12T01:22:06;95770.00;;;17.85;70.97
79799;BME280;69283;48.024;11.090;2023-08-12T01:24:41;95776.84;;;17.69;71.75
79799;BME280;69283;48.024;11.090;2023-08-12T01:27:08;95769.91;;;17.78;71.47
79799;BME280;69283;48.024;11.090;2023-08-12T01:29:35;95765.91;;;17.72;71.67
79799;BME280;69283;48.024;11.090;2023-08-12T01:37:39;95768.81;;;17.56;72.26
79799;BME280;69283;48.024;11.090;2023-08-12T01:40:05;95763.22;;;17.49;72.88
79799;BME280;69283;48.024;11.090;2023-08-12T01:42:34;95768.72;;;17.49;72.56
79799;BME280;69283;48.024;11.090;2023-08-12T01:45:01;95753.13;;;17.27;73.43
79799;BME280;69283;48.024;11.090;2023-08-12T01:47:28;95753.31;;;17.41;72.90
79799;BME280;69283;48.024;11.090;2023-08-12T01:49:53;95749.53;;;17.49;72.27
79799;BME280;69283;48.024;11.090;2023-08-12T01:52:18;95751.56;;;17.56;71.87
79799;BME280;69283;48.024;11.090;2023-08-12T01:54:44;95755.44;;;17.51;71.98
79799;BME280;69283;48.024;11.090;2023-08-12T01:57:09;95743.38;;;17.29;72.68
79799;BME280;69283;48.024;11.090;2023-08-12T01:59:35;95745.88;;;17.42;72.08
79799;BME280;69283;48.024;11.090;2023-08-12T02:02:01;95735.75;;;17.42;72.21
79799;BME280;69283;48.024;11.090;2023-08-12T02:04:27;95742.72;;;17.40;72.21
79799;BME280;69283;48.024;11.090;2023-08-12T02:06:53;95741.91;;;17.36;72.32
79799;BME280;69283;48.024;11.090;2023-08-12T02:09:18;95732.44;;;17.29;72.58
79799;BME280;69283;48.024;11.090;2023-08-12T02:11:44;95730.94;;;17.36;72.08
79799;BME280;69283;48.024;11.090;2023-08-12T02:14:09;95741.13;;;17.35;72.19
79799;BME280;69283;48.024;11.090;2023-08-12T02:16:34;95731.66;;;17.29;72.02
79799;BME280;69283;48.024;11.090;2023-08-12T02:19:00;95733.63;;;17.32;71.94
79799;BME280;69283;48.024;11.090;2023-08-12T02:21:25;95726.97;;;17.29;72.00
79799;BME280;69283;48.024;11.090;2023-08-12T02:23:50;95733.53;;;17.25;72.19
79799;BME280;69283;48.024;11.090;2023-08-12T02:26:16;95723.31;;;17.22;72.08
79799;BME280;69283;48.024;11.090;2023-08-12T02:28:41;95730.38;;;17.23;71.58
79799;BME280;69283;48.024;11.090;2023-08-12T02:31:06;95726.22;;;17.06;72.66
79799;BME280;69283;48.024;11.090;2023-08-12T02:33:32;95726.53;;;17.01;72.85
79799;BME280;69283;48.024;11.090;2023-08-12T02:35:57;95721.41;;;16.99;73.07
79799;BME280;69283;48.024;11.090;2023-08-12T02:38:22;95724.31;;;17.10;72.57
79799;BME280;69283;48.024;11.090;2023-08-12T02:40:50;95723.44;;;17.02;72.51
79799;BME280;69283;48.024;11.090;2023-08-12T02:43:16;95724.16;;;16.99;72.63
79799;BME280;69283;48.024;11.090;2023-08-12T02:45:42;95715.28;;;17.06;72.42
79799;BME280;69283;48.024;11.090;2023-08-12T02:48:09;95724.28;;;17.07;72.27
79799;BME280;69283;48.024;11.090;2023-08-12T02:50:35;95725.44;;;17.06;72.15
79799;BME280;69283;48.024;11.090;2023-08-12T02:53:00;95720.75;;;17.06;72.01
79799;BME280;69283;48.024;11.090;2023-08-12T02:55:25;95717.97;;;17.02;72.44
79799;BME280;69283;48.024;11.090;2023-08-12T02:57:50;95716.31;;;16.98;72.48
79799;BME280;69283;48.024;11.090;2023-08-12T03:00:16;95718.63;;;16.96;72.47
79799;BME280;69283;48.024;11.090;2023-08-12T03:02:42;95715.09;;;16.95;72.30
79799;BME280;69283;48.024;11.090;2023-08-12T03:05:08;95713.09;;;16.92;72.38
79799;BME280;69283;48.024;11.090;2023-08-12T03:07:33;95716.16;;;16.87;72.65
79799;BME280;69283;48.024;11.090;2023-08-12T03:09:59;95716.41;;;16.79;73.01
79799;BME280;69283;48.024;11.090;2023-08-12T03:12:24;95714.44;;;16.79;72.89
79799;BME280;69283;48.024;11.090;2023-08-12T03:14:49;95709.84;;;16.83;73.13
79799;BME280;69283;48.024;11.090;2023-08-12T03:17:15;95711.44;;;16.84;73.19
79799;BME280;69283;48.024;11.090;2023-08-12T03:19:40;95706.66;;;16.81;73.40
79799;BME280;69283;48.024;11.090;2023-08-12T03:22:05;95711.28;;;16.77;73.30
79799;BME280;69283;48.024;11.090;2023-08-12T03:24:31;95705.44;;;16.79;73.01
79799;BME280;69283;48.024;11.090;2023-08-12T03:26:56;95698.13;;;16.83;73.26
79799;BME280;69283;48.024;11.090;2023-08-12T03:29:21;95712.78;;;16.71;73.38
79799;BME280;69283;48.024;11.090;2023-08-12T03:31:46;95702.28;;;16.77;72.98
79799;BME280;69283;48.024;11.090;2023-08-12T03:34:12;95696.44;;;16.78;73.27
79799;BME280;69283;48.024;11.090;2023-08-12T03:36:37;95704.63;;;16.75;73.34
79799;BME280;69283;48.024;11.090;2023-08-12T03:39:03;95704.34;;;16.60;73.94
79799;BME280;69283;48.024;11.090;2023-08-12T03:41:28;95704.72;;;16.59;73.85
79799;BME280;69283;48.024;11.090;2023-08-12T03:43:54;95707.44;;;16.59;73.74
79799;BME280;69283;48.024;11.090;2023-08-12T03:46:19;95700.97;;;16.67;73.33
79799;BME280;69283;48.024;11.090;2023-08-12T03:48:44;95707.44;;;16.59;73.62
79799;BME280;69283;48.024;11.090;2023-08-12T03:51:10;95703.63;;;16.63;73.29
79799;BME280;69283;48.024;11.090;2023-08-12T03:53:35;95703.19;;;16.61;73.30
79799;BME280;69283;48.024;11.090;2023-08-12T03:56:00;95709.28;;;16.51;73.62
79799;BME280;69283;48.024;11.090;2023-08-12T03:58:26;95711.66;;;16.53;73.63
79799;BME280;69283;48.024;11.090;2023-08-12T04:00:51;95702.13;;;16.43;74.04
79799;BME280;69283;48.024;11.090;2023-08-12T04:03:16;95710.88;;;16.52;73.51
79799;BME280;69283;48.024;11.090;2023-08-12T04:05:51;95709.97;;;16.45;73.79
79799;BME280;69283;48.024;11.090;2023-08-12T04:08:19;95705.34;;;16.49;73.63
79799;BME280;69283;48.024;11.090;2023-08-12T04:10:45;95709.28;;;16.51;73.43
79799;BME280;69283;48.024;11.090;2023-08-12T04:13:11;95705.72;;;16.47;73.50
79799;BME280;69283;48.024;11.090;2023-08-12T04:15:36;95705.34;;;16.49;73.44
79799;BME280;69283;48.024;11.090;2023-08-12T04:18:01;95707.44;;;16.36;74.17
79799;BME280;69283;48.024;11.090;2023-08-12T04:20:27;95703.38;;;16.49;73.77
79799;BME280;69283;48.024;11.090;2023-08-12T04:22:52;95704.53;;;16.48;73.78
79799;BME280;69283;48.024;11.090;2023-08-12T04:25:18;95711.34;;;16.58;73.47
79799;BME280;69283;48.024;11.090;2023-08-12T04:27:43;95706.75;;;16.62;73.37
79799;BME280;69283;48.024;11.090;2023-08-12T04:30:09;95703.28;;;16.65;73.62
79799;BME280;69283;48.024;11.090;2023-08-12T04:32:34;95707.06;;;16.60;73.83
79799;BME280;69283;48.024;11.090;2023-08-12T04:34:59;95698.66;;;16.69;73.82
79799;BME280;69283;48.024;11.090;2023-08-12T04:37:24;95699.38;;;16.66;73.93
79799;BME280;69283;48.024;11.090;2023-08-12T04:39:51;95700.25;;;16.70;73.86
79799;BME280;69283;48.024;11.090;2023-08-12T04:42:16;95708.13;;;16.75;73.91
79799;BME280;69283;48.024;11.090;2023-08-12T04:44:41;95712.03;;;16.74;73.94
79799;BME280;69283;48.024;11.090;2023-08-12T04:47:07;95704.66;;;16.78;74.01
79799;BME280;69283;48.024;11.090;2023-08-12T04:49:32;95709.63;;;16.69;74.56
79799;BME280;69283;48.024;11.090;2023-08-12T04:51:57;95703.50;;;16.79;74.56
79799;BME280;69283;48.024;11.090;2023-08-12T04:54:23;95705.09;;;16.80;74.71
79799;BME280;69283;48.024;11.090;2023-08-12T04:56:49;95699.75;;;16.87;74.49
79799;BME280;69283;48.024;11.090;2023-08-12T04:59:14;95711.69;;;17.02;74.18
79799;BME280;69283;48.024;11.090;2023-08-12T05:01:40;95707.09;;;17.10;73.80
79799;BME280;69283;48.024;11.090;2023-08-12T05:04:05;95708.03;;;17.21;73.65
79799;BME280;69283;48.024;11.090;2023-08-12T05:06:30;95711.31;;;17.30;73.49
79799;BME280;69283;48.024;11.090;2023-08-12T05:08:56;95713.75;;;17.39;73.33
79799;BME280;69283;48.024;11.090;2023-08-12T05:11:21;95715.03;;;17.45;73.58
79799;BME280;69283;48.024;11.090;2023-08-12T05:13:46;95711.69;;;17.58;73.15
79799;BME280;69283;48.024;11.090;2023-08-12T05:16:12;95706.31;;;17.66;73.35
79799;BME280;69283;48.024;11.090;2023-08-12T05:18:37;95708.81;;;17.78;72.94
79799;BME280;69283;48.024;11.090;2023-08-12T05:21:02;95714.44;;;17.88;73.02
79799;BME280;69283;48.024;11.090;2023-08-12T05:23:28;95718.88;;;18.00;72.83
79799;BME280;69283;48.024;11.090;2023-08-12T05:25:53;95716.25;;;18.11;72.40
79799;BME280;69283;48.024;11.090;2023-08-12T05:28:18;95711.72;;;18.26;72.66
79799;BME280;69283;48.024;11.090;2023-08-12T05:30:44;95713.47;;;18.44;71.84
79799;BME280;69283;48.024;11.090;2023-08-12T05:33:10;95712.81;;;18.62;71.86
79799;BME280;69283;48.024;11.090;2023-08-12T05:35:35;95715.34;;;18.77;71.33
79799;BME280;69283;48.024;11.090;2023-08-12T05:38:01;95714.69;;;18.91;70.95
79799;BME280;69283;48.024;11.090;2023-08-12T05:40:27;95717.88;;;19.00;71.09
79799;BME280;69283;48.024;11.090;2023-08-12T05:42:52;95718.72;;;19.08;71.03
79799;BME280;69283;48.024;11.090;2023-08-12T05:45:18;95712.50;;;19.18;71.34
79799;BME280;69283;48.024;11.090;2023-08-12T05:47:43;95711.00;;;19.28;70.95
79799;BME280;69283;48.024;11.090;2023-08-12T05:50:09;95713.81;;;19.38;70.85
79799;BME280;69283;48.024;11.090;2023-08-12T05:52:34;95712.69;;;19.47;71.28
79799;BME280;69283;48.024;11.090;2023-08-12T05:54:59;95709.16;;;19.46;72.07
79799;BME280;69283;48.024;11.090;2023-08-12T05:57:25;95715.50;;;19.54;71.51
79799;BME280;69283;48.024;11.090;2023-08-12T05:59:50;95709.63;;;19.59;71.92
79799;BME280;69283;48.024;11.090;2023-08-12T06:02:15;95704.50;;;19.54;72.89
79799;BME280;69283;48.024;11.090;2023-08-12T06:04:41;95710.81;;;19.58;73.19
79799;BME280;69283;48.024;11.090;2023-08-12T06:07:06;95711.94;;;19.53;73.86
79799;BME280;69283;48.024;11.090;2023-08-12T06:09:32;95703.75;;;19.60;73.76
79799;BME280;69283;48.024;11.090;2023-08-12T06:11:57;95699.94;;;19.83;73.32
79799;BME280;69283;48.024;11.090;2023-08-12T06:14:22;95699.16;;;19.86;71.91
79799;BME280;69283;48.024;11.090;2023-08-12T06:16:48;95691.63;;;19.72;71.95
79799;BME280;69283;48.024;11.090;2023-08-12T06:19:13;95691.97;;;19.60;72.35
79799;BME280;69283;48.024;11.090;2023-08-12T06:21:38;95696.72;;;19.70;72.26
79799;BME280;69283;48.024;11.090;2023-08-12T06:24:04;95695.94;;;19.66;71.86
79799;BME280;69283;48.024;11.090;2023-08-12T06:26:29;95689.22;;;19.60;72.40
79799;BME280;69283;48.024;11.090;2023-08-12T06:28:54;95687.28;;;19.64;72.37
79799;BME280;69283;48.024;11.090;2023-08-12T06:31:20;95692.47;;;19.83;71.77
79799;BME280;69283;48.024;11.090;2023-08-12T06:33:45;95689.41;;;20.06;71.48
79799;BME280;69283;48.024;11.090;2023-08-12T06:36:10;95689.06;;;20.29;70.94
79799;BME280;69283;48.024;11.090;2023-08-12T06:38:36;95688.34;;;20.50;67.85
79799;BME280;69283;48.024;11.090;2023-08-12T06:41:01;95682.84;;;20.68;67.43
79799;BME280;69283;48.024;11.090;2023-08-12T06:43:26;95680.47;;;20.73;65.65
79799;BME280;69283;48.024;11.090;2023-08-12T06:45:52;95686.38;;;20.75;66.59
79799;BME280;69283;48.024;11.090;2023-08-12T06:48:17;95689.53;;;20.63;66.62
79799;BME280;69283;48.024;11.090;2023-08-12T06:50:42;95685.59;;;20.53;66.97
79799;BME280;69283;48.024;11.090;2023-08-12T06:53:08;95685.59;;;20.46;67.51
79799;BME280;69283;48.024;11.090;2023-08-12T06:55:34;95687.50;;;20.39;67.55
79799;BME280;69283;48.024;11.090;2023-08-12T06:57:59;95688.66;;;20.27;68.58
79799;BME280;69283;48.024;11.090;2023-08-12T07:00:25;95697.28;;;20.22;69.44
79799;BME280;69283;48.024;11.090;2023-08-12T07:02:50;95694.13;;;20.16;69.63
79799;BME280;69283;48.024;11.090;2023-08-12T07:05:15;95688.63;;;20.20;69.77
79799;BME280;69283;48.024;11.090;2023-08-12T07:07:41;95692.56;;;20.15;70.14
79799;BME280;69283;48.024;11.090;2023-08-12T07:10:06;95687.06;;;20.15;70.48
79799;BME280;69283;48.024;11.090;2023-08-12T07:12:32;95682.34;;;20.19;71.37
79799;BME280;69283;48.024;11.090;2023-08-12T07:14:58;95695.34;;;20.22;71.03
79799;BME280;69283;48.024;11.090;2023-08-12T07:17:23;95699.69;;;20.23;70.93
79799;BME280;69283;48.024;11.090;2023-08-12T07:19:49;95692.22;;;20.24;71.30
79799;BME280;69283;48.024;11.090;2023-08-12T07:22:14;95691.03;;;20.25;71.84
79799;BME280;69283;48.024;11.090;2023-08-12T07:24:43;95691.81;;;20.25;72.09
79799;BME280;69283;48.024;11.090;2023-08-12T07:27:08;95694.97;;;20.24;72.57
79799;BME280;69283;48.024;11.090;2023-08-12T07:29:34;95694.97;;;20.24;72.35
79799;BME280;69283;48.024;11.090;2023-08-12T07:31:59;95699.69;;;20.23;72.15
79799;BME280;69283;48.024;11.090;2023-08-12T07:34:24;95695.34;;;20.26;72.21
79799;BME280;69283;48.024;11.090;2023-08-12T07:36:49;95698.88;;;20.30;72.50
79799;BME280;69283;48.024;11.090;2023-08-12T07:39:15;95692.22;;;20.31;71.81
79799;BME280;69283;48.024;11.090;2023-08-12T07:41:40;95687.09;;;20.36;72.36
79799;BME280;69283;48.024;11.090;2023-08-12T07:44:06;95687.91;;;20.41;72.14
79799;BME280;69283;48.024;11.090;2023-08-12T07:46:31;95691.09;;;20.46;72.61
79799;BME280;69283;48.024;11.090;2023-08-12T07:48:57;95694.63;;;20.50;71.42
79799;BME280;69283;48.024;11.090;2023-08-12T07:51:22;95691.88;;;20.57;70.38
79799;BME280;69283;48.024;11.090;2023-08-12T07:53:47;95694.63;;;20.57;69.96
79799;BME280;69283;48.024;11.090;2023-08-12T07:56:13;95694.25;;;20.62;70.99
79799;BME280;69283;48.024;11.090;2023-08-12T07:58:38;95690.31;;;20.71;71.44
79799;BME280;69283;48.024;11.090;2023-08-12T08:01:03;95693.06;;;20.74;71.69
79799;BME280;69283;48.024;11.090;2023-08-12T08:03:30;95686.41;;;20.82;72.15
79799;BME280;69283;48.024;11.090;2023-08-12T08:05:55;95687.97;;;20.87;72.26
79799;BME280;69283;48.024;11.090;2023-08-12T08:08:20;95691.88;;;20.93;71.63
79799;BME280;69283;48.024;11.090;2023-08-12T08:10:46;95694.22;;;21.02;72.62
79799;BME280;69283;48.024;11.090;2023-08-12T08:13:11;95695.03;;;21.09;71.83
79799;BME280;69283;48.024;11.090;2023-08-12T08:15:37;95705.25;;;21.12;70.82
79799;BME280;69283;48.024;11.090;2023-08-12T08:18:02;95700.50;;;21.16;70.98
79799;BME280;69283;48.024;11.090;2023-08-12T08:20:29;95704.06;;;21.17;70.38
79799;BME280;69283;48.024;11.090;2023-08-12T08:22:54;95702.47;;;21.19;71.22
79799;BME280;69283;48.024;11.090;2023-08-12T08:25:20;95702.06;;;21.21;70.80
79799;BME280;69283;48.024;11.090;2023-08-12T08:27:45;95701.28;;;21.20;69.89
79799;BME280;69283;48.024;11.090;2023-08-12T08:30:11;95707.22;;;21.22;70.28
79799;BME280;69283;48.024;11.090;2023-08-12T08:32:36;95713.13;;;21.17;70.09
79799;BME280;69283;48.024;11.090;2023-08-12T08:35:02;95715.47;;;21.15;69.83
79799;BME280;69283;48.024;11.090;2023-08-12T08:37:27;95706.81;;;21.20;69.39
79799;BME280;69283;48.024;11.090;2023-08-12T08:39:52;95710.34;;;21.21;69.20
79799;BME280;69283;48.024;11.090;2023-08-12T08:42:20;95709.56;;;21.20;69.40
79799;BME280;69283;48.024;11.090;2023-08-12T08:44:45;95708.38;;;21.18;69.06
79799;BME280;69283;48.024;11.090;2023-08-12T08:47:11;95710.75;;;21.19;68.93
79799;BME280;69283;48.024;11.090;2023-08-12T08:49:40;95717.81;;;21.20;68.74
79799;BME280;69283;48.024;11.090;2023-08-12T08:52:05;95717.81;;;21.20;70.12
79799;BME280;69283;48.024;11.090;2023-08-12T08:54:30;95709.97;;;21.22;68.88
79799;BME280;69283;48.024;11.090;2023-08-12T08:56:56;95722.19;;;21.25;69.34
79799;BME280;69283;48.024;11.090;2023-08-12T08:59:21;95718.66;;;21.32;69.57
79799;BME280;69283;48.024;11.090;2023-08-12T09:01:49;95719.41;;;21.36;69.52
79799;BME280;69283;48.024;11.090;2023-08-12T09:04:16;95721.38;;;21.42;70.13
79799;BME280;69283;48.024;11.090;2023-08-12T09:06:43;95715.44;;;21.58;69.62
79799;BME280;69283;48.024;11.090;2023-08-12T09:09:10;95719.34;;;21.68;68.76
79799;BME280;69283;48.024;11.090;2023-08-12T09:11:38;95717.75;;;21.74;68.15
79799;BME280;69283;48.024;11.090;2023-08-12T09:14:05;95720.06;;;21.90;67.41
79799;BME280;69283;48.024;11.090;2023-08-12T09:16:30;95714.50;;;21.97;68.09
79799;BME280;69283;48.024;11.090;2023-08-12T09:18:56;95723.16;;;21.99;68.59
79799;BME280;69283;48.024;11.090;2023-08-12T09:21:21;95711.31;;;22.02;67.42
79799;BME280;69283;48.024;11.090;2023-08-12T09:23:46;95719.63;;;22.05;67.69
79799;BME280;69283;48.024;11.090;2023-08-12T09:26:13;95707.38;;;22.13;67.24
79799;BME280;69283;48.024;11.090;2023-08-12T09:28:40;95706.13;;;22.22;66.51
79799;BME280;69283;48.024;11.090;2023-08-12T09:31:05;95708.84;;;22.32;65.85
79799;BME280;69283;48.024;11.090;2023-08-12T09:33:31;95701.38;;;22.29;66.27
79799;BME280;69283;48.024;11.090;2023-08-12T09:35:56;95705.69;;;22.34;65.09
79799;BME280;69283;48.024;11.090;2023-08-12T09:38:22;95704.50;;;22.35;64.73
79799;BME280;69283;48.024;11.090;2023-08-12T09:40:47;95701.69;;;22.45;65.78
79799;BME280;69283;48.024;11.090;2023-08-12T09:43:13;95707.97;;;22.42;66.37
79799;BME280;69283;48.024;11.090;2023-08-12T09:45:38;95711.16;;;22.44;67.12
79799;BME280;69283;48.024;11.090;2023-08-12T09:48:04;95707.97;;;22.46;67.04
79799;BME280;69283;48.024;11.090;2023-08-12T09:50:29;95714.28;;;22.46;67.46
79799;BME280;69283;48.024;11.090;2023-08-12T09:52:55;95707.53;;;22.51;67.15
79799;BME280;69283;48.024;11.090;2023-08-12T09:55:24;95710.69;;;22.53;66.01
79799;BME280;69283;48.024;11.090;2023-08-12T09:57:54;95711.41;;;22.61;65.20
79799;BME280;69283;48.024;11.090;2023-08-12T10:00:21;95711.84;;;22.56;66.16
79799;BME280;69283;48.024;11.090;2023-08-12T10:02:48;95711.81;;;22.63;64.06
79799;BME280;69283;48.024;11.090;2023-08-12T10:05:24;95709.06;;;22.63;63.38
79799;BME280;69283;48.024;11.090;2023-08-12T10:07:51;95708.19;;;22.73;61.07
79799;BME280;69283;48.024;11.090;2023-08-12T10:10:17;95704.31;;;22.63;61.97
79799;BME280;69283;48.024;11.090;2023-08-12T10:12:43;95716.09;;;22.71;62.66
79799;BME280;69283;48.024;11.090;2023-08-12T10:15:09;95714.09;;;22.75;62.36
79799;BME280;69283;48.024;11.090;2023-08-12T10:17:36;95711.28;;;22.78;63.33
79799;BME280;69283;48.024;11.090;2023-08-12T10:20:04;95703.75;;;22.90;63.12
79799;BME280;69283;48.024;11.090;2023-08-12T10:22:30;95703.63;;;23.00;63.81
79799;BME280;69283;48.024;11.090;2023-08-12T10:24:58;95698.84;;;23.08;64.31
79799;BME280;69283;48.024;11.090;2023-08-12T10:27:25;95697.00;;;23.35;63.03
79799;BME280;69283;48.024;11.090;2023-08-12T10:29:50;95692.34;;;23.29;61.77
79799;BME280;69283;48.024;11.090;2023-08-12T10:32:16;95690.25;;;23.40;59.84
79799;BME280;69283;48.024;11.090;2023-08-12T10:34:41;95685.44;;;23.48;59.12
79799;BME280;69283;48.024;11.090;2023-08-12T10:37:09;95685.75;;;23.53;58.85
79799;BME280;69283;48.024;11.090;2023-08-12T10:39:35;95689.34;;;23.50;57.25
79799;BME280;69283;48.024;11.090;2023-08-12T10:42:01;95683.00;;;23.53;58.32
79799;BME280;69283;48.024;11.090;2023-08-12T10:44:39;95676.63;;;23.60;57.37
79799;BME280;69283;48.024;11.090;2023-08-12T10:47:09;95679.59;;;23.76;57.15
79799;BME280;69283;48.024;11.090;2023-08-12T10:49:48;95677.56;;;23.84;56.09
79799;BME280;69283;48.024;11.090;2023-08-12T10:52:30;95679.06;;;23.88;57.06
79799;BME280;69283;48.024;11.090;2023-08-12T10:55:19;95671.09;;;23.94;56.40
79799;BME280;69283;48.024;11.090;2023-08-12T10:57:45;95663.50;;;23.98;56.46
79799;BME280;69283;48.024;11.090;2023-08-12T11:00:13;95661.59;;;23.95;56.67
79799;BME280;69283;48.024;11.090;2023-08-12T11:02:39;95657.72;;;23.89;57.95
79799;BME280;69283;48.024;11.090;2023-08-12T11:05:12;95656.50;;;23.90;58.08
79799;BME280;69283;48.024;11.090;2023-08-12T11:07:46;95652.91;;;23.93;57.78
79799;BME280;69283;48.024;11.090;2023-08-12T11:12:58;95642.44;;;24.08;58.21
79799;BME280;69283;48.024;11.090;2023-08-12T11:15:44;95642.75;;;24.44;57.63
79799;BME280;69283;48.024;11.090;2023-08-12T11:18:14;95640.75;;;24.44;55.77
79799;BME280;69283;48.024;11.090;2023-08-12T11:20:41;95651.41;;;24.46;55.41
79799;BME280;69283;48.024;11.090;2023-08-12T11:23:08;95636.03;;;24.41;55.73
79799;BME280;69283;48.024;11.090;2023-08-12T11:25:34;95637.69;;;24.62;55.36
79799;BME280;69283;48.024;11.090;2023-08-12T11:28:00;95634.09;;;24.65;56.63
79799;BME280;69283;48.024;11.090;2023-08-12T11:30:26;95638.31;;;24.50;57.76
79799;BME280;69283;48.024;11.090;2023-08-12T11:32:54;95631.34;;;24.65;54.84
79799;BME280;69283;48.024;11.090;2023-08-12T11:35:22;95627.94;;;24.77;54.33
79799;BME280;69283;48.024;11.090;2023-08-12T11:37:53;95634.47;;;24.91;55.33
79799;BME280;69283;48.024;11.090;2023-08-12T11:40:19;95629.16;;;25.03;54.30
79799;BME280;69283;48.024;11.090;2023-08-12T11:42:47;95631.69;;;24.91;55.49
79799;BME280;69283;48.024;11.090;2023-08-12T11:45:15;95625.75;;;25.15;53.99
79799;BME280;69283;48.024;11.090;2023-08-12T11:47:41;95632.69;;;25.04;55.85
79799;BME280;69283;48.024;11.090;2023-08-12T11:50:09;95629.28;;;24.93;55.92
79799;BME280;69283;48.024;11.090;2023-08-12T11:52:36;95630.13;;;24.90;55.57
79799;BME280;69283;48.024;11.090;2023-08-12T11:55:02;95627.09;;;24.80;54.92
79799;BME280;69283;48.024;11.090;2023-08-12T11:57:27;95632.78;;;24.73;54.09
79799;BME280;69283;48.024;11.090;2023-08-12T11:59:58;95621.69;;;24.73;56.26
79799;BME280;69283;48.024;11.090;2023-08-12T12:02:24;95622.41;;;24.77;55.98
79799;BME280;69283;48.024;11.090;2023-08-12T12:04:51;95626.66;;;24.85;54.46
79799;BME280;69283;48.024;11.090;2023-08-12T12:07:21;95610.84;;;24.82;54.71
79799;BME280;69283;48.024;11.090;2023-08-12T12:09:50;95614.22;;;24.94;54.86
79799;BME280;69283;48.024;11.090;2023-08-12T12:12:15;95616.88;;;25.01;54.33
79799;BME280;69283;48.024;11.090;2023-08-12T12:14:42;95618.69;;;25.11;52.78
79799;BME280;69283;48.024;11.090;2023-08-12T12:17:08;95612.16;;;25.21;53.41
79799;BME280;69283;48.024;11.090;2023-08-12T12:19:40;95613.53;;;25.33;53.90
79799;BME280;69283;48.024;11.090;2023-08-12T12:22:05;95616.94;;;25.40;54.60
79799;BME280;69283;48.024;11.090;2023-08-12T12:24:31;95611.63;;;25.50;51.35
79799;BME280;69283;48.024;11.090;2023-08-12T12:26:56;95620.31;;;25.52;51.91
79799;BME280;69283;48.024;11.090;2023-08-12T12:29:22;95618.22;;;25.56;53.05
79799;BME280;69283;48.024;11.090;2023-08-12T12:31:48;95617.03;;;25.57;53.53
79799;BME280;69283;48.024;11.090;2023-08-12T12:34:13;95613.38;;;25.60;53.98
79799;BME280;69283;48.024;11.090;2023-08-12T12:36:39;95618.94;;;25.60;54.51
79799;BME280;69283;48.024;11.090;2023-08-12T12:39:06;95615.38;;;25.59;54.19
79799;BME280;69283;48.024;11.090;2023-08-12T12:41:31;95613.03;;;25.58;54.66
79799;BME280;69283;48.024;11.090;2023-08-12T12:43:59;95611.34;;;25.64;56.16
79799;BME280;69283;48.024;11.090;2023-08-12T12:46:24;95613.66;;;25.69;56.75
79799;BME280;69283;48.024;11.090;2023-08-12T12:48:49;95618.25;;;25.75;55.57
79799;BME280;69283;48.024;11.090;2023-08-12T12:51:15;95603.81;;;25.84;54.91
79799;BME280;69283;48.024;11.090;2023-08-12T12:53:41;95613.28;;;25.87;54.91
79799;BME280;69283;48.024;11.090;2023-08-12T12:56:06;95610.78;;;25.92;55.44
79799;BME280;69283;48.024;11.090;2023-08-12T12:58:37;95599.72;;;26.08;53.52